Strona główna
METAR-TAF:

METAR-TAF

Lotnisko :

Springfield-Beckley Municipal Airport

Springfield, Ohio, Stany Zjednoczone

Szerokość geograficzna: 39-50N, Długość geograficzna: 083-50W, wysokość: 321 m

Aktualna obserwacja pogody

Raport powstał 45 minut temu, godzina 10:19 UTC
Wiatr 12 kt od południowy zachód
Temperatura 9°C
Wilgotność 100%
Ciśnienie 1013 hPa
Widzialność: 16.1 km
Zachmurzenie całkowite na wysokości 700 ft

METAR: KSGH 181019Z AUTO 23012KT 10SM OVC007 09/09 A2990 RMK AO2 RAE13 CIG 004V010 P0000

czas: 06:04 (11:04 UTC)


TAF: brakujący

Obserwacja i prognoza pogody dla ponad 4000 lotnisk (raport METAR i TAF).

Dostępne stacje oznaczono żółtymi i czerwonymi punktami na mapie.

Najedź kursorem aby zobaczyć nazwę stacji.

Kliknij aby zobaczyć obserwacje i prognozy pogody.

Aby zmienić mapę: kliknij na zielony przycisk z czarnym krzyżykiem, aby powiększyć; na zielony przycisk z myślnikiem, aby pomniejszyć; na zielone strzałki, aby przejść do map sąsiednich.


METAR-TAF: